Latest Weather Observations for Newdegate

IDW60801

Issued at 5:03 am WST Tuesday 6 December 2022 (issued every 10 minutes, with the page automatically refreshed every 10 minutes)

About weather observations | Map of weather stations | Latest weather observations for WA | Other Formats
Station Details ID: 010692 Name: NEWDEGATE RESEARCH STATION Lat: -33.11 Lon: 118.84 Height: 320.0 m
Data from the previous 72 hours. | See also: Recent months at Newdegate
Date/Time
WST
Temp
°C
App
Temp
°C
Dew
Point
°C
Rel
Hum
%
Delta-T
°C
Wind Press
QNH
hPa
Press
MSL
hPa
Rain since
9am
mm
Dir  Spd
km/h
Gust
km/h
Spd
kts
Gust
kts
06/05:00am 14.0 12.4 11.7 86 1.3 SSE 11 17 6 9 1014.6 1013.4 0.0
06/04:30am 13.9 12.3 11.6 86 1.2 SE 11 15 6 8 1014.3 1013.1 0.0
06/04:00am 13.9 12.3 11.4 85 1.4 SSE 11 15 6 8 1014.2 1013.0 0.0
06/03:30am 13.9 12.7 11.6 86 1.2 SE 9 15 5 8 1014.0 1012.8 0.0
06/03:00am 13.6 11.9 11.3 86 1.2 SE 11 17 6 9 1014.0 1012.8 0.0
06/02:30am 13.8 11.7 11.3 85 1.3 SSE 13 19 7 10 1014.2 1013.0 0.0
06/02:00am 14.2 11.7 11.2 82 1.6 SSE 15 22 8 12 1014.3 1013.1 0.0
06/01:30am 14.5 11.8 11.7 83 1.5 SSE 17 22 9 12 1014.3 1013.1 0.0
06/01:00am 14.8 12.5 11.8 82 1.6 S 15 20 8 11 1014.4 1013.2 0.0
06/12:30am 15.0 12.3 11.8 81 1.8 SSE 17 26 9 14 1014.4 1013.2 0.0
06/12:00am 15.1 12.8 11.7 80 1.9 SSE 15 20 8 11 1014.5 1013.3 0.0
 
Date/Time
WST
Temp
°C
App
Temp
°C
Dew
Point
°C
Rel
Hum
%
Delta-T
°C
Wind Press
QNH
hPa
Press
MSL
hPa
Rain since
9am
mm
Dir  Spd
km/h
Gust
km/h
Spd
kts
Gust
kts
05/11:30pm 14.9 13.1 12.0 83 1.6 SSE 13 20 7 11 1014.9 1013.7 0.0
05/11:00pm 15.1 12.1 12.1 82 1.7 SSE 19 26 10 14 1015.2 1014.0 0.0
05/10:30pm 15.5 12.7 11.5 77 2.2 SE 17 24 9 13 1015.1 1013.9 0.0
05/10:00pm 15.5 13.2 11.7 78 2.1 SE 15 22 8 12 1015.1 1013.9 0.0
05/09:30pm 15.8 12.8 12.0 78 2.1 SSE 19 24 10 13 1015.0 1013.8 0.0
05/09:00pm 16.0 13.8 12.2 78 2.1 SE 15 24 8 13 1014.7 1013.5 0.0
05/08:30pm 16.1 12.6 12.3 78 2.1 SE 22 30 12 16 1014.6 1013.4 0.0
05/08:00pm 16.3 13.3 12.1 76 2.3 SSE 19 26 10 14 1014.3 1013.1 0.0
05/07:30pm 17.4 14.2 11.9 70 3.1 SE 20 28 11 15 1014.1 1012.9 0.0
05/07:00pm 17.6 14.0 11.9 69 3.2 SSE 22 30 12 16 1014.0 1012.8 0.0
05/06:30pm 17.8 13.8 11.8 68 3.3 SE 24 30 13 16 1013.8 1012.6 0.0
05/06:00pm 18.6 15.0 11.9 65 3.8 SE 22 30 12 16 1013.5 1012.3 0.0
05/05:30pm 19.4 16.5 12.2 63 4.1 SE 19 26 10 14 1013.2 1012.0 0.0
05/05:00pm 19.3 15.8 12.3 64 4.0 SE 22 32 12 17 1013.1 1011.9 0.0
05/04:30pm 20.5 17.6 12.2 59 4.7 SE 19 26 10 14 1013.0 1011.8 0.0
05/04:00pm 18.9 15.1 12.4 66 3.7 SE 24 37 13 20 1013.1 1011.9 0.0
05/03:30pm 20.5 17.3 12.0 58 4.8 SE 20 30 11 16 1012.9 1011.6 0.0
05/03:00pm 21.8 18.8 11.8 53 5.7 SE 19 26 10 14 1012.9 1011.6 0.0
05/02:30pm 21.6 18.3 11.6 53 5.7 SSE 20 28 11 15 1012.9 1011.6 0.0
05/02:00pm 21.4 18.5 11.1 52 5.8 ESE 17 26 9 14 1012.9 1011.6 0.0
05/01:30pm 21.4 18.5 10.9 51 5.9 SE 17 26 9 14 1013.1 1011.9 0.0
05/01:00pm 22.0 19.4 10.8 49 6.3 SE 15 28 8 15 1013.2 1012.0 0.0
05/12:30pm 20.6 17.7 11.0 54 5.3 ESE 17 24 9 13 1013.4 1012.2 0.0
05/12:00pm 20.3 17.5 11.5 57 4.9 ESE 17 24 9 13 1013.7 1012.5 0.0
05/11:30am 20.2 17.0 11.1 56 5.1 ESE 19 24 10 13 1013.8 1012.6 0.0
05/11:00am 19.6 16.8 11.4 59 4.6 ESE 17 24 9 13 1014.1 1012.9 0.0
05/10:30am 18.6 15.4 11.2 62 4.1 ESE 19 28 10 15 1014.4 1013.2 0.0
05/10:00am 18.5 15.3 11.1 62 4.1 ESE 19 24 10 13 1014.5 1013.3 0.0
05/09:30am 17.9 14.6 11.0 64 3.8 E 19 28 10 15 1014.9 1013.7 0.0
05/09:00am 17.3 13.4 10.9 66 3.5 ESE 22 30 12 16 1015.0 1013.8 0.0
05/08:30am 17.9 14.1 11.2 65 3.7 ESE 22 32 12 17 1015.0 1013.8 0.0
05/08:00am 16.6 12.3 10.9 69 3.1 E 24 32 13 17 1015.2 1014.0 0.0
05/07:30am 16.0 12.2 11.0 72 2.7 ESE 22 32 12 17 1015.4 1014.2 0.0
05/07:00am 15.7 11.4 10.9 73 2.6 E 24 33 13 18 1015.4 1014.2 0.0
05/06:30am 15.3 11.8 10.9 75 2.4 E 20 30 11 16 1015.3 1014.1 0.0
05/06:00am 14.8 11.0 11.0 78 2.0 E 22 32 12 17 1015.1 1013.9 0.0
05/05:30am 14.5 10.6 10.9 79 1.9 E 22 33 12 18 1014.9 1013.7 0.0
05/05:00am 14.3 11.4 10.9 80 1.8 ESE 17 26 9 14 1015.1 1013.9 0.0
05/04:30am 14.3 10.4 10.9 80 1.8 ESE 22 35 12 19 1015.1 1013.9 0.0
05/04:00am 14.3 10.7 10.7 79 1.9 ESE 20 30 11 16 1014.9 1013.7 0.0
05/03:30am 14.4 10.8 10.6 78 2.0 ESE 20 28 11 15 1015.2 1014.0 0.0
05/03:00am 14.2 10.2 10.6 79 1.9 ESE 22 37 12 20 1015.1 1013.9 0.0
05/02:30am 14.3 10.4 10.7 79 1.9 ESE 22 30 12 16 1015.4 1014.2 0.0
05/02:00am 14.6 10.6 10.6 77 2.1 ESE 22 35 12 19 1015.5 1014.3 0.0
05/01:30am 14.6 11.1 11.0 79 1.9 ESE 20 30 11 16 1015.7 1014.5 0.0
05/01:00am 14.6 11.2 11.2 80 1.8 ESE 20 28 11 15 1015.9 1014.7 0.0
05/12:30am 14.6 10.5 11.4 81 1.7 ESE 24 37 13 20 1016.0 1014.8 0.0
05/12:00am 14.6 10.5 11.4 81 1.7 ESE 24 35 13 19 1016.4 1015.2 0.0
 
Date/Time
WST
Temp
°C
App
Temp
°C
Dew
Point
°C
Rel
Hum
%
Delta-T
°C
Wind Press
QNH
hPa
Press
MSL
hPa
Rain since
9am
mm
Dir  Spd
km/h
Gust
km/h
Spd
kts
Gust
kts
04/11:30pm 14.5 10.7 11.3 81 1.7 SE 22 37 12 20 1016.7 1015.5 0.0
04/11:00pm 14.7 11.3 11.1 79 1.9 ESE 20 28 11 15 1016.9 1015.7 0.0
04/10:30pm 14.7 10.9 11.3 80 1.8 ESE 22 33 12 18 1017.0 1015.8 0.0
04/10:00pm 14.7 10.1 11.1 79 1.9 ESE 26 35 14 19 1017.2 1016.0 0.0
04/09:30pm 14.6 10.8 11.2 80 1.8 ESE 22 33 12 18 1017.2 1016.0 0.0
04/09:00pm 14.9 10.3 11.1 78 2.1 SE 26 37 14 20 1017.3 1016.1 0.0
04/08:30pm 15.2 10.5 10.8 75 2.4 SE 26 39 14 21 1017.2 1016.0 0.0
04/08:00pm 15.2 11.0 11.2 77 2.2 ESE 24 37 13 20 1017.0 1015.8 0.0
04/07:30pm 15.5 11.0 11.3 76 2.3 SE 26 37 14 20 1016.8 1015.6 0.0
04/07:00pm 15.6 11.2 11.6 77 2.2 SE 26 41 14 22 1016.6 1015.4 0.0
04/06:30pm 16.0 10.5 12.0 77 2.2 SE 32 41 17 22 1016.2 1015.0 0.0
04/06:00pm 16.7 11.2 12.0 74 2.6 SE 32 48 17 26 1016.0 1014.8 0.0
04/05:30pm 17.8 12.7 12.0 69 3.2 SE 30 44 16 24 1015.8 1014.6 0.0
04/05:00pm 18.3 13.8 12.7 70 3.2 SE 28 37 15 20 1015.5 1014.3 0.0
04/04:30pm 18.9 13.7 12.9 68 3.4 SE 32 44 17 24 1015.2 1014.0 0.0
04/04:00pm 19.9 15.0 12.4 62 4.3 SE 30 43 16 23 1015.1 1013.9 0.0
04/03:30pm 20.7 15.0 11.9 57 5.0 SE 33 48 18 26 1014.8 1013.6 0.0
04/03:00pm 21.7 16.2 11.7 53 5.7 SE 32 44 17 24 1014.6 1013.4 0.0
04/02:30pm 21.8 15.6 11.5 52 5.8 SE 35 52 19 28 1014.6 1013.4 0.0
04/02:18pm 23.8 18.8 12.1 48 6.7 SE 30 50 16 27 1014.5 1013.3 0.0
04/02:00pm 22.3 16.8 12.0 52 5.9 SE 32 44 17 24 1014.7 1013.5 0.0
04/01:30pm 23.1 17.5 12.1 50 6.3 SE 33 46 18 25 1015.1 1013.9 0.0
04/01:00pm 23.3 17.7 12.0 49 6.5 ESE 33 43 18 23 1015.2 1014.0 0.0
04/12:30pm 22.1 16.4 11.2 50 6.1 ESE 32 50 17 27 1015.8 1014.6 0.0
04/12:27pm 22.5 16.9 11.6 50 6.2 ESE 32 50 17 27 1015.9 1014.7 0.0
04/12:00pm 21.6 15.8 11.6 53 5.7 SE 33 46 18 25 1016.4 1015.2 0.0
04/11:30am 20.4 14.5 11.3 56 5.1 SE 33 48 18 26 1016.7 1015.5 0.0
04/11:00am 20.0 13.7 11.2 57 4.9 ESE 35 52 19 28 1017.2 1016.0 0.0
04/10:55am 20.2 14.3 11.1 56 5.1 ESE 33 52 18 28 1017.3 1016.1 0.0
04/10:30am 19.6 13.8 11.4 59 4.6 ESE 33 44 18 24 1017.5 1016.3 0.0
04/10:00am 19.1 13.9 11.7 62 4.1 ESE 30 41 16 22 1017.7 1016.5 0.0
04/09:30am 17.5 12.7 11.5 68 3.3 ESE 28 44 15 24 1017.9 1016.7 0.0
04/09:00am 16.2 11.5 12.0 76 2.3 ESE 28 43 15 23 1018.1 1016.9 0.4
04/08:30am 15.2 10.2 12.2 82 1.7 SE 30 41 16 22 1018.1 1016.9 0.4
04/08:00am 14.7 10.2 12.7 88 1.1 SE 28 41 15 22 1018.3 1017.1 0.4
04/07:30am 15.0 11.2 13.5 91 0.8 SE 26 39 14 21 1017.7 1016.5 0.4
04/07:00am 14.3 10.7 12.9 91 0.8 SE 24 35 13 19 1017.7 1016.5 0.4
04/06:30am 13.8 10.0 12.5 92 0.7 SE 24 35 13 19 1017.3 1016.1 0.4
04/06:00am 13.9 10.9 12.6 92 0.7 SE 20 33 11 18 1016.9 1015.7 0.4
04/05:30am 14.2 11.5 12.8 91 0.8 SE 19 28 10 15 1016.6 1015.4 0.2
04/05:00am 14.1 11.2 12.3 89 1.0 ESE 19 28 10 15 1016.4 1015.2 0.0
04/04:30am 14.3 11.8 12.3 88 1.1 ESE 17 26 9 14 1016.1 1014.9 0.0
04/04:00am 14.4 10.8 11.9 85 1.4 ESE 22 33 12 18 1015.9 1014.7 0.0
04/03:30am 14.4 11.1 11.6 83 1.5 SE 20 28 11 15 1015.9 1014.7 0.0
04/03:00am 15.0 11.2 11.0 77 2.2 SE 22 32 12 17 1015.8 1014.6 0.0
04/02:30am 15.2 10.5 10.8 75 2.4 ESE 26 35 14 19 1015.7 1014.5 0.0
04/02:00am 15.3 11.3 10.5 73 2.6 ESE 22 37 12 20 1015.8 1014.6 0.0
04/01:30am 15.3 10.9 10.3 72 2.7 ESE 24 37 13 20 1015.5 1014.3 0.0
04/01:00am 15.3 9.3 10.1 71 2.8 ESE 32 46 17 25 1015.7 1014.5 0.0
04/12:30am 15.3 10.4 10.1 71 2.8 SE 26 41 14 22 1015.5 1014.3 0.0
04/12:00am 15.3 10.6 10.5 73 2.6 ESE 26 37 14 20 1015.9 1014.7 0.0
 
Date/Time
WST
Temp
°C
App
Temp
°C
Dew
Point
°C
Rel
Hum
%
Delta-T
°C
Wind Press
QNH
hPa
Press
MSL
hPa
Rain since
9am
mm
Dir  Spd
km/h
Gust
km/h
Spd
kts
Gust
kts
03/11:30pm 15.3 10.6 10.5 73 2.6 ESE 26 43 14 23 1015.8 1014.6 0.0
03/11:00pm 15.4 10.7 10.6 73 2.6 SE 26 41 14 22 1015.9 1014.7 0.0
03/10:30pm 15.3 9.7 10.3 72 2.7 SE 30 43 16 23 1016.2 1015.0 0.0
03/10:00pm 15.4 10.2 10.2 71 2.8 ESE 28 41 15 22 1015.8 1014.6 0.0
03/09:30pm 15.2 9.3 10.4 73 2.6 SE 32 48 17 26 1016.1 1014.9 0.0
03/09:00pm 15.6 9.7 10.6 72 2.7 SE 32 41 17 22 1016.0 1014.8 0.0
03/08:50pm 15.7 10.1 10.2 70 2.9 SE 30 50 16 27 1015.9 1014.7 0.0
03/08:30pm 15.6 10.8 10.2 70 2.9 SE 26 39 14 21 1015.7 1014.5 0.0
03/08:00pm 15.5 9.9 10.1 70 2.9 SE 30 46 16 25 1015.5 1014.3 0.0
03/07:30pm 15.9 10.3 10.0 68 3.1 SE 30 44 16 24 1015.0 1013.8 0.0
03/07:00pm 16.8 10.5 9.7 63 3.8 SE 33 48 18 26 1014.6 1013.4 0.0
03/06:30pm 18.6 12.3 9.7 56 4.8 SE 33 46 18 25 1013.9 1012.7 0.0
03/06:00pm 20.1 13.4 9.7 51 5.6 SE 35 50 19 27 1013.3 1012.1 0.0
03/05:30pm 22.5 16.5 10.0 45 6.9 SE 32 43 17 23 1012.6 1011.3 0.0
03/05:00pm 24.4 19.1 9.9 40 8.1 SE 28 41 15 22 1011.9 1010.7 0.0
03/04:30pm 25.2 19.5 9.9 38 8.6 SE 30 41 16 22 1011.5 1010.3 0.0
03/04:00pm 26.3 20.5 9.6 35 9.4 SE 30 44 16 24 1011.1 1009.9 0.0
03/03:30pm 27.5 22.9 9.8 33 10.0 SE 24 37 13 20 1011.1 1009.9 0.0
03/03:00pm 27.9 23.7 9.7 32 10.3 ESE 22 33 12 18 1011.2 1010.0 0.0
03/02:30pm 28.2 24.9 9.5 31 10.5 SSE 17 28 9 15 1011.0 1009.8 0.0
03/02:00pm 28.7 25.9 9.9 31 10.7 SE 15 26 8 14 1011.1 1009.9 0.0
03/01:30pm 29.3 26.6 10.4 31 10.9 SE 15 28 8 15 1011.2 1010.0 0.0
03/01:00pm 27.8 24.0 9.1 31 10.5 SE 19 30 10 16 1011.5 1010.3 0.0
03/12:30pm 27.8 24.5 9.6 32 10.3 ESE 17 30 9 16 1012.1 1010.9 0.0
03/12:00pm 27.1 23.7 9.0 32 10.1 SE 17 32 9 17 1012.4 1011.1 0.0
03/11:30am 26.8 23.5 9.6 34 9.6 SE 17 28 9 15 1012.4 1011.1 0.0
03/11:00am 25.1 21.9 9.8 38 8.5 SE 17 30 9 16 1012.6 1011.3 0.0
03/10:30am 24.2 21.0 9.8 40 8.0 ESE 17 28 9 15 1013.0 1011.8 0.0
03/10:00am 23.4 20.2 10.1 43 7.4 ESE 17 30 9 16 1013.3 1012.1 0.0
03/09:30am 21.0 18.1 9.6 48 6.2 ESE 15 28 8 15 1013.4 1012.2 0.0
03/09:00am 21.1 18.0 10.3 50 6.0 ESE 17 26 9 14 1013.6 1012.4 0.0
03/08:30am 19.1 15.5 9.9 55 5.0 ESE 19 26 10 14 1013.9 1012.7 0.0
03/08:00am 17.9 14.1 9.8 59 4.3 ESE 20 30 11 16 1013.5 1012.3 0.0
03/07:30am 16.6 13.1 10.2 66 3.4 SE 19 24 10 13 1013.7 1012.5 0.0
03/07:00am 15.5 11.8 10.3 71 2.8 SE 20 28 11 15 1013.4 1012.2 0.0
03/06:30am 14.6 11.0 10.0 74 2.4 ESE 19 28 10 15 1013.2 1012.0 0.0
03/06:00am 13.9 10.2 10.1 78 2.0 ESE 20 28 11 15 1013.0 1011.8 0.0
03/05:30am 13.3 10.1 10.1 81 1.7 ESE 17 28 9 15 1012.5 1011.2 0.0

Other formats

Comma delimited format used in spreadsheet applications
http://www.bom.gov.au/fwo/IDW60801/IDW60801.94628.axf

JavaScript Object Notation format (JSON) in row-major order
http://www.bom.gov.au/fwo/IDW60801/IDW60801.94628.json

Data quality

Most of these data are generated automatically and are frequently updated. Quality checks on data are not normally performed. It is possible for incorrect values to appear. Refer to information at About Latest Weather Observations and please check the disclaimer before using these data.